Helena Kosan — MQWF3 — position and weather

sailwx.info

Track history (hours):
 
Tides and Currents Weather Stations Pressure Air Temp Water Temp Dewpoint Dewpoint Depression Visibility Wind Speed Wind Dir Waves Ship Positions

Helena Kosan

Last reported at 2017-Dec-18 03:03 UTC. Time now 2017-Dec-18 18:40 UTC.
Position N 36°43' W 023°49'.

Length 115 m; draft 6.3 m.

Type: Ship (hazmat cat D). MMSI: 235053771.

Date/timePositionNaut miles runAvg speedWind from/ knotsBaromVisibWave heightAir tempDewpointWater temp
2017-Dec-18 03:03N 36°43' W 023°49'118.6
2017-Dec-18 03:00N 36°43' W 023°50'816.3
2017-Dec-18 02:30N 36°42' W 024°00'816.4
2017-Dec-18 02:01N 36°42' W 024°10'816.6
2017-Dec-18 01:30N 36°41' W 024°21'816.6
2017-Dec-18 01:00N 36°41' W 024°31'816.6
2017-Dec-18 00:31N 36°41' W 024°41'816.8
2017-Dec-18 00:00N 36°41' W 024°52'816.3
2017-Dec-17 23:30N 36°40' W 025°02'816.3
2017-Dec-17 23:01N 36°40' W 025°12'816.8
2017-Dec-17 22:31N 36°39' W 025°23'816.7
2017-Dec-17 22:00N 36°39' W 025°33'816.3
2017-Dec-17 21:30N 36°39' W 025°43'816.2
2017-Dec-17 21:01N 36°38' W 025°53'816.3
2017-Dec-17 20:30N 36°38' W 026°03'  
Track history (hours):
 
Tides and Currents Weather Stations Pressure Air Temp Water Temp Dewpoint Dewpoint Depression Visibility Wind Speed Wind Dir Waves Ship Positions

Helena Kosan

Last reported at 2017-Dec-18 03:03 UTC. Time now 2017-Dec-18 18:40 UTC.
Position N 36°43' W 023°49'.

Length 115 m; draft 6.3 m.

Type: Ship (hazmat cat D). MMSI: 235053771.

Date/timePositionNaut miles runAvg speedWind from/ knotsBaromVisibWave heightAir tempDewpointWater temp
2017-Dec-18 03:03N 36°43' W 023°49'118.6
2017-Dec-18 03:00N 36°43' W 023°50'816.3
2017-Dec-18 02:30N 36°42' W 024°00'816.4
2017-Dec-18 02:01N 36°42' W 024°10'816.6
2017-Dec-18 01:30N 36°41' W 024°21'816.6
2017-Dec-18 01:00N 36°41' W 024°31'816.6
2017-Dec-18 00:31N 36°41' W 024°41'816.8
2017-Dec-18 00:00N 36°41' W 024°52'816.3
2017-Dec-17 23:30N 36°40' W 025°02'816.3
2017-Dec-17 23:01N 36°40' W 025°12'816.8
2017-Dec-17 22:31N 36°39' W 025°23'816.7
2017-Dec-17 22:00N 36°39' W 025°33'816.3
2017-Dec-17 21:30N 36°39' W 025°43'816.2
2017-Dec-17 21:01N 36°38' W 025°53'816.3
2017-Dec-17 20:30N 36°38' W 026°03'  

Dump ship's entire track history